Time;durP1;ratioP1;P1;durP2;ratioP2;P2;SDS_P1;SDS_P2;PMS_P1;PMS_P2;Temp;Humidity;BMP_temperature;BMP_pressure;BME280_temperature;BME280_humidity;BME280_pressure;Samples;Min_cycle;Max_cycle;Signal;HPM_P1;HPM_P2
2022/04/28 00:00:20;;;;;;;;;;;26.00;40.90;;;;;;5076700;28;989;-44
2022/04/28 00:02:47;;;;;;;;;;;26.00;41.00;;;;;;5078174;28;1009;-44
2022/04/28 00:05:14;;;;;;;;;;;25.90;41.10;;;;;;5075757;28;936;-44
2022/04/28 00:07:43;;;;;;;;;;;26.00;41.10;;;;;;5075078;28;1000;-44
2022/04/28 00:10:11;;;;;;;;;;;25.90;41.00;;;;;;5075247;28;952;-44
2022/04/28 00:12:37;;;;;;;;;;;25.90;41.10;;;;;;5075726;28;881;-44
2022/04/28 00:15:05;;;;;;;;;;;25.90;41.00;;;;;;5074066;28;1894;-45
2022/04/28 00:17:32;;;;;;;;;;;25.90;41.00;;;;;;5075573;28;1004;-44
2022/04/28 00:19:58;;;;;;;;;;;25.90;41.00;;;;;;5075934;28;932;-45
2022/04/28 00:22:25;;;;;;;;;;;25.90;41.00;;;;;;5075211;28;872;-44
2022/04/28 00:24:53;;;;;;;;;;;26.00;41.10;;;;;;5076955;28;956;-44
2022/04/28 00:27:20;;;;;;;;;;;25.90;40.90;;;;;;5076453;28;921;-42
2022/04/28 00:29:47;;;;;;;;;;;25.90;40.90;;;;;;5075910;28;933;-44
2022/04/28 00:32:14;;;;;;;;;;;25.90;41.00;;;;;;5075439;28;888;-46
2022/04/28 00:34:41;;;;;;;;;;;25.90;41.10;;;;;;5076101;28;1973;-45
2022/04/28 00:37:09;;;;;;;;;;;25.90;40.90;;;;;;5076250;28;979;-45
2022/04/28 00:39:36;;;;;;;;;;;25.90;41.10;;;;;;5076118;28;1028;-45
2022/04/28 00:42:07;;;;;;;;;;;25.90;41.10;;;;;;5076370;28;1096;-45
2022/04/28 00:44:34;;;;;;;;;;;25.90;40.90;;;;;;5075694;28;993;-45
2022/04/28 00:47:00;;;;;;;;;;;25.90;41.00;;;;;;5075125;28;1039;-43
2022/04/28 00:52:11;;;;;;;;;;;25.90;41.00;;;;;;5077166;28;912;-43
2022/04/28 00:54:38;;;;;;;;;;;25.90;40.90;;;;;;5075349;28;1984;-43
2022/04/28 00:57:06;;;;;;;;;;;25.90;40.90;;;;;;5076576;28;953;-43
2022/04/28 00:59:38;;;;;;;;;;;25.90;40.90;;;;;;5075775;28;1018;-40
2022/04/28 01:02:05;;;;;;;;;;;25.90;40.90;;;;;;5074767;28;892;-42
2022/04/28 01:04:31;;;;;;;;;;;25.80;40.90;;;;;;5075871;28;965;-38
2022/04/28 01:06:58;;;;;;;;;;;25.80;41.00;;;;;;5075399;28;928;-42
2022/04/28 01:09:25;;;;;;;;;;;25.80;41.00;;;;;;5074771;28;953;-40
2022/04/28 01:11:52;;;;;;;;;;;25.80;41.00;;;;;;5076052;28;1000;-42
2022/04/28 01:14:20;;;;;;;;;;;25.80;40.90;;;;;;5076342;28;1975;-39
2022/04/28 01:16:46;;;;;;;;;;;25.80;40.90;;;;;;5077102;28;1027;-41
2022/04/28 01:19:13;;;;;;;;;;;25.80;41.00;;;;;;5077002;28;1152;-40
2022/04/28 01:21:41;;;;;;;;;;;25.80;41.00;;;;;;5077104;28;941;-41
2022/04/28 01:24:08;;;;;;;;;;;25.80;40.90;;;;;;5077696;28;1048;-41
2022/04/28 01:26:36;;;;;;;;;;;25.80;40.90;;;;;;5076104;28;1025;-42
2022/04/28 01:29:02;;;;;;;;;;;25.80;41.00;;;;;;5076281;28;1037;-43
2022/04/28 01:31:29;;;;;;;;;;;25.80;40.90;;;;;;5075544;28;913;-43
2022/04/28 01:33:56;;;;;;;;;;;25.80;40.90;;;;;;5073866;28;1889;-42
2022/04/28 01:36:23;;;;;;;;;;;25.80;41.00;;;;;;5075949;28;960;-43
2022/04/28 01:38:51;;;;;;;;;;;25.80;40.90;;;;;;5076760;28;985;-43
2022/04/28 01:41:17;;;;;;;;;;;25.80;40.80;;;;;;5075426;28;1046;-43
2022/04/28 01:43:45;;;;;;;;;;;25.80;40.90;;;;;;5075038;28;1166;-43
2022/04/28 01:46:12;;;;;;;;;;;25.80;40.90;;;;;;5075073;28;1114;-43
2022/04/28 01:48:39;;;;;;;;;;;25.80;40.80;;;;;;5074965;28;1008;-43
2022/04/28 01:56:35;;;;;;;;;;;25.80;40.80;;;;;;5074693;28;609;-43
2022/04/28 01:59:03;;;;;;;;;;;25.80;40.90;;;;;;5075253;28;986;-43
2022/04/28 02:01:29;;;;;;;;;;;25.80;40.80;;;;;;5075040;28;1033;-43
2022/04/28 02:03:56;;;;;;;;;;;25.80;40.90;;;;;;5075420;28;1120;-43
2022/04/28 02:06:23;;;;;;;;;;;25.80;40.90;;;;;;5078101;28;928;-41
2022/04/28 02:08:51;;;;;;;;;;;25.80;41.00;;;;;;5074665;28;1459;-44
2022/04/28 02:11:18;;;;;;;;;;;25.70;40.80;;;;;;5075511;28;945;-44
2022/04/28 02:13:45;;;;;;;;;;;25.70;40.90;;;;;;5075337;28;1006;-44
2022/04/28 02:16:12;;;;;;;;;;;25.70;40.90;;;;;;5073908;28;1981;-44
2022/04/28 02:18:39;;;;;;;;;;;25.70;40.80;;;;;;5075355;28;1008;-44
2022/04/28 02:21:05;;;;;;;;;;;25.70;40.90;;;;;;5074986;28;957;-44
2022/04/28 02:23:32;;;;;;;;;;;25.70;40.90;;;;;;5075241;28;1019;-44
2022/04/28 02:26:00;;;;;;;;;;;25.70;40.90;;;;;;5074882;28;961;-43
2022/04/28 02:28:27;;;;;;;;;;;25.70;40.80;;;;;;5075261;28;917;-44
2022/04/28 02:30:54;;;;;;;;;;;25.70;40.90;;;;;;5075213;28;893;-44
2022/04/28 02:33:21;;;;;;;;;;;25.70;40.80;;;;;;5074326;28;1004;-44
2022/04/28 02:35:48;;;;;;;;;;;25.70;40.80;;;;;;5073587;28;1902;-44
2022/04/28 02:38:14;;;;;;;;;;;25.70;40.90;;;;;;5074383;28;1023;-44
2022/04/28 02:40:41;;;;;;;;;;;25.80;40.90;;;;;;5073668;28;1135;-44
2022/04/28 02:43:09;;;;;;;;;;;25.70;40.80;;;;;;5073817;28;1343;-44
2022/04/28 02:45:36;;;;;;;;;;;25.70;40.80;;;;;;5073587;28;984;-44
2022/04/28 02:48:03;;;;;;;;;;;25.70;40.80;;;;;;5074246;28;992;-44
2022/04/28 02:50:30;;;;;;;;;;;25.70;40.80;;;;;;5074600;28;898;-44
2022/04/28 02:52:56;;;;;;;;;;;25.70;40.80;;;;;;5073691;28;999;-45
2022/04/28 02:55:23;;;;;;;;;;;25.70;40.70;;;;;;5072879;28;1906;-44
2022/04/28 02:57:50;;;;;;;;;;;25.70;40.80;;;;;;5074143;28;996;-44
2022/04/28 03:00:18;;;;;;;;;;;25.70;40.80;;;;;;5073810;28;1004;-45
2022/04/28 03:02:45;;;;;;;;;;;25.70;40.70;;;;;;5078707;28;995;-46
2022/04/28 03:05:11;;;;;;;;;;;25.70;40.90;;;;;;5081183;28;999;-44
2022/04/28 03:13:17;;;;;;;;;;;25.70;40.90;;;;;;5081336;28;1014;-44
2022/04/28 03:15:46;;;;;;;;;;;25.60;40.90;;;;;;5080955;28;1980;-44
2022/04/28 03:18:13;;;;;;;;;;;25.60;40.90;;;;;;5082507;28;936;-44
2022/04/28 03:20:40;;;;;;;;;;;25.70;40.90;;;;;;5081911;28;933;-44
2022/04/28 03:23:07;;;;;;;;;;;25.70;40.90;;;;;;5082323;28;928;-44
2022/04/28 03:25:34;;;;;;;;;;;25.70;40.90;;;;;;5081642;28;865;-44
2022/04/28 03:28:00;;;;;;;;;;;25.60;40.80;;;;;;5081052;28;1009;-44
2022/04/28 03:30:27;;;;;;;;;;;25.60;40.90;;;;;;5080139;28;831;-44
2022/04/28 03:32:55;;;;;;;;;;;25.70;40.80;;;;;;5080664;28;975;-44
2022/04/28 03:35:22;;;;;;;;;;;25.60;40.80;;;;;;5080876;28;1918;-44
2022/04/28 03:37:49;;;;;;;;;;;25.70;40.80;;;;;;5081486;28;996;-44
2022/04/28 03:40:16;;;;;;;;;;;25.70;40.80;;;;;;5080580;28;1193;-43
2022/04/28 03:42:43;;;;;;;;;;;25.70;40.80;;;;;;5080522;28;1079;-44
2022/04/28 03:45:10;;;;;;;;;;;25.60;40.80;;;;;;5080919;28;945;-44
2022/04/28 03:47:37;;;;;;;;;;;25.60;40.80;;;;;;5080041;28;1016;-44
2022/04/28 03:50:07;;;;;;;;;;;25.60;40.70;;;;;;5079286;28;977;-44
2022/04/28 03:52:34;;;;;;;;;;;25.60;40.80;;;;;;5081562;28;992;-44
2022/04/28 03:55:00;;;;;;;;;;;25.60;40.70;;;;;;5080274;28;1902;-44
2022/04/28 03:57:28;;;;;;;;;;;25.60;40.70;;;;;;5079818;28;991;-44
2022/04/28 03:59:56;;;;;;;;;;;25.60;40.70;;;;;;5078802;28;918;-44
2022/04/28 04:02:23;;;;;;;;;;;25.60;40.70;;;;;;5078977;28;943;-44
2022/04/28 04:04:50;;;;;;;;;;;25.60;40.70;;;;;;5078602;28;896;-44
2022/04/28 04:07:18;;;;;;;;;;;25.60;40.70;;;;;;5079066;28;985;-44
2022/04/28 04:09:45;;;;;;;;;;;25.60;40.70;;;;;;5077695;28;1884;-44
2022/04/28 04:12:11;;;;;;;;;;;25.60;40.70;;;;;;5076918;28;937;-44
2022/04/28 04:14:38;;;;;;;;;;;25.60;40.70;;;;;;5075145;28;965;-44
2022/04/28 04:17:05;;;;;;;;;;;25.60;40.70;;;;;;5074432;28;991;-45
2022/04/28 04:19:32;;;;;;;;;;;25.60;40.80;;;;;;5074322;28;1036;-42
2022/04/28 04:21:59;;;;;;;;;;;25.60;40.80;;;;;;5073768;28;964;-42
2022/04/28 04:24:27;;;;;;;;;;;25.60;40.90;;;;;;5072561;28;973;-41
2022/04/28 04:26:54;;;;;;;;;;;25.60;40.80;;;;;;5073357;28;937;-41
2022/04/28 04:29:21;;;;;;;;;;;25.60;40.80;;;;;;5076018;28;901;-42
2022/04/28 04:34:31;;;;;;;;;;;25.60;40.70;;;;;;5072724;28;707;-42
2022/04/28 04:36:58;;;;;;;;;;;25.60;40.80;;;;;;5072480;28;1906;-44
2022/04/28 04:39:25;;;;;;;;;;;25.60;40.70;;;;;;5074053;28;838;-44
2022/04/28 04:41:53;;;;;;;;;;;25.60;40.70;;;;;;5072860;28;1047;-45
2022/04/28 04:44:19;;;;;;;;;;;25.50;40.70;;;;;;5074571;28;944;-44
2022/04/28 04:46:46;;;;;;;;;;;25.60;40.90;;;;;;5073495;28;1493;-44
2022/04/28 04:49:13;;;;;;;;;;;25.60;40.70;;;;;;5073844;28;909;-41
2022/04/28 04:51:39;;;;;;;;;;;25.50;40.70;;;;;;5072884;28;894;-44
2022/04/28 04:54:06;;;;;;;;;;;25.50;40.70;;;;;;5073577;28;853;-44
2022/04/28 04:56:34;;;;;;;;;;;25.60;40.70;;;;;;5072006;28;1913;-45
2022/04/28 04:59:02;;;;;;;;;;;25.50;40.70;;;;;;5071741;28;1529;-44
2022/04/28 05:01:29;;;;;;;;;;;25.50;40.60;;;;;;5071998;28;1017;-45
2022/04/28 05:03:56;;;;;;;;;;;25.50;40.60;;;;;;5068108;28;928;-44
2022/04/28 05:06:22;;;;;;;;;;;25.60;41.80;;;;;;5069552;28;1076;-45
2022/04/28 05:08:49;;;;;;;;;;;25.50;40.60;;;;;;5067463;28;968;-43
2022/04/28 05:11:16;;;;;;;;;;;25.50;40.70;;;;;;5068409;28;996;-44
2022/04/28 05:13:43;;;;;;;;;;;25.50;40.80;;;;;;5067748;28;1031;-44
2022/04/28 05:16:11;;;;;;;;;;;25.50;40.80;;;;;;5068694;28;1917;-44
2022/04/28 05:18:38;;;;;;;;;;;25.50;40.80;;;;;;5067754;28;1032;-44
2022/04/28 05:21:04;;;;;;;;;;;25.50;40.90;;;;;;5067083;28;965;-44
2022/04/28 05:23:31;;;;;;;;;;;25.50;40.80;;;;;;5065300;28;925;-40
2022/04/28 05:25:58;;;;;;;;;;;25.50;40.80;;;;;;5066909;28;913;-42
2022/04/28 05:28:26;;;;;;;;;;;25.50;40.90;;;;;;5066005;28;1015;-41
2022/04/28 05:30:55;;;;;;;;;;;25.50;40.90;;;;;;5066447;28;1033;-41
2022/04/28 05:33:23;;;;;;;;;;;25.50;40.80;;;;;;5067896;28;1035;-39
2022/04/28 05:35:50;;;;;;;;;;;25.50;40.80;;;;;;5067003;28;1902;-42
2022/04/28 05:38:17;;;;;;;;;;;25.50;40.90;;;;;;5068231;28;932;-41
2022/04/28 05:40:44;;;;;;;;;;;25.50;40.90;;;;;;5067356;28;928;-45
2022/04/28 05:45:56;;;;;;;;;;;25.50;40.90;;;;;;5054509;28;1636;-45
2022/04/28 05:48:24;;;;;;;;;;;25.50;40.80;;;;;;5054217;28;1026;-45
2022/04/28 05:50:51;;;;;;;;;;;25.50;40.80;;;;;;5050275;28;1138;-45
2022/04/28 05:53:17;;;;;;;;;;;25.50;40.80;;;;;;5051454;28;990;-45
2022/04/28 05:55:46;;;;;;;;;;;25.50;40.90;;;;;;5048004;28;1902;-45
2022/04/28 05:58:12;;;;;;;;;;;25.50;42.00;;;;;;5049268;28;932;-45
2022/04/28 06:00:39;;;;;;;;;;;25.50;40.90;;;;;;5049164;28;924;-45
2022/04/28 06:03:06;;;;;;;;;;;25.50;40.90;;;;;;5050222;28;1043;-44
2022/04/28 06:05:34;;;;;;;;;;;25.50;40.90;;;;;;5049278;28;877;-44
2022/04/28 06:08:01;;;;;;;;;;;25.40;40.80;;;;;;5050120;28;1054;-44
2022/04/28 06:10:28;;;;;;;;;;;25.50;40.90;;;;;;5049464;28;931;-44
2022/04/28 06:12:54;;;;;;;;;;;25.40;40.80;;;;;;5050364;28;1012;-43
2022/04/28 06:15:21;;;;;;;;;;;25.50;40.90;;;;;;5049541;28;1902;-44
2022/04/28 06:17:48;;;;;;;;;;;25.50;40.80;;;;;;5048364;28;1019;-44
2022/04/28 06:20:14;;;;;;;;;;;25.50;40.80;;;;;;5047472;28;831;-43
2022/04/28 06:22:43;;;;;;;;;;;25.40;40.80;;;;;;5048630;28;980;-43
2022/04/28 06:25:10;;;;;;;;;;;25.40;40.90;;;;;;5048249;28;1044;-43
2022/04/28 06:27:37;;;;;;;;;;;25.40;40.90;;;;;;5048838;28;1894;-43
2022/04/28 06:30:04;;;;;;;;;;;25.40;40.90;;;;;;5049357;28;992;-43
2022/04/28 06:32:31;;;;;;;;;;;25.40;40.80;;;;;;5050338;28;960;-43
2022/04/28 06:34:58;;;;;;;;;;;25.40;40.90;;;;;;5049546;28;1007;-42
2022/04/28 06:37:24;;;;;;;;;;;25.40;40.90;;;;;;5048577;28;1977;-43
2022/04/28 06:39:52;;;;;;;;;;;25.40;40.90;;;;;;5050077;28;913;-43
2022/04/28 06:42:19;;;;;;;;;;;25.40;40.90;;;;;;5049675;28;995;-43
2022/04/28 06:44:46;;;;;;;;;;;25.40;40.90;;;;;;5048056;28;940;-43
2022/04/28 06:47:12;;;;;;;;;;;25.50;41.00;;;;;;5047996;28;1031;-43
2022/04/28 06:49:39;;;;;;;;;;;25.40;40.80;;;;;;5050056;28;1000;-42
2022/04/28 06:52:06;;;;;;;;;;;25.40;40.80;;;;;;5046851;28;1008;-43
2022/04/28 06:54:32;;;;;;;;;;;25.50;41.00;;;;;;5048034;28;985;-42
2022/04/28 06:57:00;;;;;;;;;;;25.40;40.80;;;;;;5047926;28;1902;-43
2022/04/28 06:59:27;;;;;;;;;;;25.40;40.90;;;;;;5046074;28;929;-43
2022/04/28 07:01:54;;;;;;;;;;;25.40;41.00;;;;;;5045389;28;980;-43
2022/04/28 07:04:21;;;;;;;;;;;25.50;41.00;;;;;;5044054;28;1038;-42
2022/04/28 07:06:47;;;;;;;;;;;25.40;41.00;;;;;;5044547;28;1008;-43
2022/04/28 07:09:14;;;;;;;;;;;25.40;41.00;;;;;;5045369;28;842;-43
2022/04/28 07:11:41;;;;;;;;;;;25.40;40.90;;;;;;5047215;28;917;-43
2022/04/28 07:14:09;;;;;;;;;;;25.40;41.00;;;;;;5045924;28;936;-43
2022/04/28 07:16:36;;;;;;;;;;;25.40;42.20;;;;;;5047310;28;1906;-43
2022/04/28 07:19:04;;;;;;;;;;;25.40;40.90;;;;;;5046665;28;1044;-43
2022/04/28 07:21:31;;;;;;;;;;;25.40;41.00;;;;;;5045875;28;960;-43
2022/04/28 07:23:58;;;;;;;;;;;25.40;41.00;;;;;;5045089;28;1128;-45
2022/04/28 07:26:24;;;;;;;;;;;25.40;41.00;;;;;;5045720;28;1059;-46
2022/04/28 07:28:51;;;;;;;;;;;25.50;41.10;;;;;;5046377;28;983;-42
2022/04/28 07:31:19;;;;;;;;;;;25.40;40.90;;;;;;5045852;28;952;-43
2022/04/28 07:33:46;;;;;;;;;;;25.40;41.00;;;;;;5042950;28;897;-43
2022/04/28 07:36:13;;;;;;;;;;;25.40;41.00;;;;;;5041840;28;1910;-43
2022/04/28 07:38:41;;;;;;;;;;;25.40;41.20;;;;;;5045126;28;1020;-43
2022/04/28 07:41:08;;;;;;;;;;;25.40;41.10;;;;;;5045838;28;1100;-43
2022/04/28 07:43:34;;;;;;;;;;;25.40;41.20;;;;;;5045122;28;981;-43
2022/04/28 07:46:01;;;;;;;;;;;25.50;41.10;;;;;;5046132;28;1461;-43
2022/04/28 07:48:29;;;;;;;;;;;25.40;40.90;;;;;;5046878;28;928;-43
2022/04/28 07:50:56;;;;;;;;;;;25.50;41.10;;;;;;5048297;28;901;-43
2022/04/28 07:53:23;;;;;;;;;;;25.50;41.10;;;;;;5047568;28;982;-43
2022/04/28 07:58:31;;;;;;;;;;;25.50;41.10;;;;;;5049631;28;1137;-42
2022/04/28 08:00:58;;;;;;;;;;;25.50;41.10;;;;;;5048757;28;1028;-43
2022/04/28 08:03:25;;;;;;;;;;;25.40;41.10;;;;;;5048029;28;1453;-43
2022/04/28 08:05:53;;;;;;;;;;;25.50;41.20;;;;;;5047027;28;1024;-41
2022/04/28 08:08:20;;;;;;;;;;;25.50;41.10;;;;;;5047368;28;924;-43
2022/04/28 08:10:46;;;;;;;;;;;25.50;41.00;;;;;;5045967;28;1008;-42
2022/04/28 08:13:13;;;;;;;;;;;25.50;41.00;;;;;;5045428;28;873;-46
2022/04/28 08:15:40;;;;;;;;;;;25.50;41.10;;;;;;5048561;28;921;-46
2022/04/28 08:18:07;;;;;;;;;;;25.50;41.00;;;;;;5047333;28;2005;-46
2022/04/28 08:20:34;;;;;;;;;;;25.50;41.10;;;;;;5049839;28;1009;-46
2022/04/28 08:23:02;;;;;;;;;;;25.50;41.00;;;;;;5048654;28;1068;-46
2022/04/28 08:25:28;;;;;;;;;;;25.50;41.10;;;;;;5048754;28;917;-44
2022/04/28 08:27:55;;;;;;;;;;;25.50;41.10;;;;;;5048862;28;1062;-46
2022/04/28 08:30:22;;;;;;;;;;;25.50;41.10;;;;;;5047629;28;889;-46
2022/04/28 08:32:48;;;;;;;;;;;25.50;41.10;;;;;;5047392;28;1024;-46
2022/04/28 08:35:16;;;;;;;;;;;25.40;41.00;;;;;;5047537;28;924;-46
2022/04/28 08:37:42;;;;;;;;;;;25.50;41.20;;;;;;5049297;28;1902;-46
2022/04/28 08:40:11;;;;;;;;;;;25.50;41.10;;;;;;5049697;28;1174;-45
2022/04/28 08:42:38;;;;;;;;;;;25.50;41.20;;;;;;5050515;28;929;-44
2022/04/28 08:45:05;;;;;;;;;;;25.50;41.20;;;;;;5050418;28;945;-47
2022/04/28 08:47:33;;;;;;;;;;;25.50;41.10;;;;;;5049397;28;870;-46
2022/04/28 08:50:00;;;;;;;;;;;25.50;41.10;;;;;;5067104;28;1770;-41
2022/04/28 08:52:26;;;;;;;;;;;25.50;41.10;;;;;;5072026;28;921;-43
2022/04/28 08:54:54;;;;;;;;;;;25.50;41.20;;;;;;5071329;28;1429;-42
2022/04/28 08:57:23;;;;;;;;;;;25.60;41.30;;;;;;5069343;28;1918;-42
2022/04/28 08:59:51;;;;;;;;;;;25.60;41.20;;;;;;5067565;28;1052;-43
2022/04/28 09:02:22;;;;;;;;;;;25.50;41.10;;;;;;5067870;28;921;-41
2022/04/28 09:04:49;;;;;;;;;;;25.50;41.20;;;;;;5068541;28;920;-44
2022/04/28 09:07:16;;;;;;;;;;;25.50;41.10;;;;;;5066699;28;1009;-45
2022/04/28 09:09:43;;;;;;;;;;;25.50;41.30;;;;;;5065974;28;1031;-44
2022/04/28 09:12:10;;;;;;;;;;;25.40;41.20;;;;;;5066666;28;1049;-45
2022/04/28 09:14:42;;;;;;;;;;;25.50;41.30;;;;;;5064873;28;841;-44
2022/04/28 09:17:09;;;;;;;;;;;25.60;41.30;;;;;;5068842;28;1971;-44
2022/04/28 09:19:37;;;;;;;;;;;25.60;41.40;;;;;;5068616;28;881;-44
2022/04/28 09:22:08;;;;;;;;;;;25.50;41.30;;;;;;5068597;28;976;-45
2022/04/28 09:24:37;;;;;;;;;;;25.50;41.30;;;;;;5068325;28;1516;-42
2022/04/28 09:27:07;;;;;;;;;;;25.60;41.40;;;;;;5070310;28;1247;-41
2022/04/28 09:29:39;;;;;;;;;;;25.60;41.30;;;;;;5070006;28;1126;-43
2022/04/28 09:32:10;;;;;;;;;;;25.50;41.40;;;;;;5068650;28;1032;-43
2022/04/28 09:34:44;;;;;;;;;;;25.50;41.40;;;;;;5067249;28;868;-43
2022/04/28 09:37:16;;;;;;;;;;;25.50;41.30;;;;;;5068493;28;1987;-43
2022/04/28 09:42:35;;;;;;;;;;;25.60;41.30;;;;;;5067171;28;916;-44
2022/04/28 09:45:02;;;;;;;;;;;25.50;41.30;;;;;;5067215;28;1740;-45
2022/04/28 09:47:31;;;;;;;;;;;25.50;41.40;;;;;;5068226;28;1004;-44
2022/04/28 09:49:58;;;;;;;;;;;25.50;41.30;;;;;;5067175;28;861;-45
2022/04/28 09:52:29;;;;;;;;;;;25.60;41.30;;;;;;5068286;28;944;-44
2022/04/28 09:54:58;;;;;;;;;;;25.60;41.20;;;;;;5064295;28;858;-44
2022/04/28 09:57:25;;;;;;;;;;;25.50;41.10;;;;;;5068329;28;1992;-45
2022/04/28 09:59:54;;;;;;;;;;;25.60;41.30;;;;;;5066257;28;882;-44
2022/04/28 10:02:21;;;;;;;;;;;25.50;41.10;;;;;;5067820;28;1024;-44
2022/04/28 10:04:49;;;;;;;;;;;25.60;41.20;;;;;;5066238;28;1000;-44
2022/04/28 10:07:17;;;;;;;;;;;25.50;41.30;;;;;;5065682;28;1001;-44
2022/04/28 10:09:46;;;;;;;;;;;25.60;41.30;;;;;;5065554;28;1001;-44
2022/04/28 10:12:14;;;;;;;;;;;25.60;41.20;;;;;;5062640;28;1087;-44
2022/04/28 10:14:41;;;;;;;;;;;25.60;41.30;;;;;;5065485;28;1111;-44
2022/04/28 10:17:11;;;;;;;;;;;25.60;41.20;;;;;;5066712;28;1957;-45
2022/04/28 10:19:41;;;;;;;;;;;25.60;41.30;;;;;;5067193;28;889;-44
2022/04/28 10:22:11;;;;;;;;;;;25.60;41.40;;;;;;5065460;28;1003;-44
2022/04/28 10:32:57;;;;;;;;;;;25.60;41.20;;;;;;5067473;28;908;-39
2022/04/28 10:35:33;;;;;;;;;;;25.60;41.20;;;;;;5068515;28;944;-43
2022/04/28 10:38:06;;;;;;;;;;;25.60;42.40;;;;;;5065616;28;1902;-42
2022/04/28 10:40:37;;;;;;;;;;;25.60;41.20;;;;;;5064786;28;1096;-43
2022/04/28 10:43:03;;;;;;;;;;;25.60;41.30;;;;;;5065934;28;928;-43
2022/04/28 10:45:38;;;;;;;;;;;25.60;41.30;;;;;;5063293;28;972;-43
2022/04/28 10:48:14;;;;;;;;;;;25.60;41.30;;;;;;5062524;28;987;-43
2022/04/28 10:50:41;;;;;;;;;;;25.60;41.20;;;;;;5060678;28;905;-43
2022/04/28 10:53:11;;;;;;;;;;;25.60;41.30;;;;;;5061312;28;1030;-43
2022/04/28 10:55:40;;;;;;;;;;;25.60;41.30;;;;;;5060505;28;867;-43
2022/04/28 10:58:20;;;;;;;;;;;25.60;41.40;;;;;;5063273;28;1973;-44
2022/04/28 11:00:51;;;;;;;;;;;25.60;41.50;;;;;;5060685;28;843;-44
2022/04/28 11:03:42;;;;;;;;;;;25.50;41.40;;;;;;5062016;28;1028;-43
2022/04/28 11:06:11;;;;;;;;;;;25.60;41.50;;;;;;5063342;28;973;-43
2022/04/28 11:08:44;;;;;;;;;;;25.60;41.40;;;;;;5059997;28;1017;-43
2022/04/28 11:11:13;;;;;;;;;;;25.60;41.30;;;;;;5062500;28;976;-44
2022/04/28 11:13:48;;;;;;;;;;;25.60;41.20;;;;;;5059721;28;974;-43
2022/04/28 11:16:16;;;;;;;;;;;25.60;41.30;;;;;;5062329;28;896;-43
2022/04/28 11:18:43;;;;;;;;;;;25.60;41.30;;;;;;5063801;28;1983;-43
2022/04/28 11:21:11;;;;;;;;;;;25.60;41.20;;;;;;5062685;28;1016;-44
2022/04/28 11:23:40;;;;;;;;;;;25.60;41.20;;;;;;5060924;28;896;-43
2022/04/28 11:26:09;;;;;;;;;;;25.60;41.10;;;;;;5066455;28;901;-44
2022/04/28 11:28:36;;;;;;;;;;;25.60;41.10;;;;;;5068718;28;1097;-45
2022/04/28 11:31:08;;;;;;;;;;;25.60;41.10;;;;;;5071302;28;869;-44
2022/04/28 11:33:34;;;;;;;;;;;25.60;41.10;;;;;;5070877;28;899;-44
2022/04/28 11:36:02;;;;;;;;;;;25.60;41.10;;;;;;5070504;28;895;-45
2022/04/28 11:38:31;;;;;;;;;;;25.60;41.00;;;;;;5070690;28;1969;-47
2022/04/28 11:40:58;;;;;;;;;;;25.60;41.00;;;;;;5070517;28;1111;-44
2022/04/28 11:43:28;;;;;;;;;;;25.60;41.00;;;;;;5070686;28;932;-41
2022/04/28 11:45:55;;;;;;;;;;;25.60;40.90;;;;;;5071318;28;1011;-39
2022/04/28 11:48:23;;;;;;;;;;;25.60;41.00;;;;;;5070426;28;997;-40
2022/04/28 11:50:50;;;;;;;;;;;25.60;40.90;;;;;;5070435;28;977;-41
2022/04/28 11:53:18;;;;;;;;;;;25.60;40.90;;;;;;5069446;28;961;-41
2022/04/28 11:55:48;;;;;;;;;;;25.60;40.90;;;;;;5067466;28;914;-39
2022/04/28 11:58:15;;;;;;;;;;;25.60;41.00;;;;;;5068366;28;1918;-42
2022/04/28 12:00:44;;;;;;;;;;;25.60;40.90;;;;;;5069119;28;834;-44
2022/04/28 12:03:22;;;;;;;;;;;25.60;41.00;;;;;;5068657;28;985;-41
2022/04/28 12:05:51;;;;;;;;;;;25.60;41.00;;;;;;5067790;28;766;-38
2022/04/28 12:08:21;;;;;;;;;;;25.60;40.90;;;;;;5067776;28;873;-40
2022/04/28 12:16:18;;;;;;;;;;;25.60;40.90;;;;;;5070295;28;672;-41
2022/04/28 12:21:32;;;;;;;;;;;25.60;40.90;;;;;;5068354;28;602;-42
2022/04/28 12:24:00;;;;;;;;;;;25.60;40.90;;;;;;5069316;28;997;-41
2022/04/28 12:26:27;;;;;;;;;;;25.60;40.90;;;;;;5067361;28;991;-41
2022/04/28 12:28:54;;;;;;;;;;;25.60;41.00;;;;;;5067430;28;1005;-42
2022/04/28 12:31:27;;;;;;;;;;;25.60;40.90;;;;;;5068050;28;1202;-42
2022/04/28 12:33:55;;;;;;;;;;;25.60;40.90;;;;;;5066546;28;972;-42
2022/04/28 12:36:22;;;;;;;;;;;25.60;40.90;;;;;;5063838;28;893;-43
2022/04/28 12:38:52;;;;;;;;;;;25.60;40.90;;;;;;5065404;28;1894;-40
2022/04/28 12:41:21;;;;;;;;;;;25.60;41.10;;;;;;5064793;28;1166;-41
2022/04/28 12:43:52;;;;;;;;;;;25.60;42.10;;;;;;5066851;28;909;-41
2022/04/28 12:46:21;;;;;;;;;;;25.60;42.10;;;;;;5065990;28;924;-43
2022/04/28 12:48:55;;;;;;;;;;;25.60;41.00;;;;;;5066325;28;1013;-42
2022/04/28 12:51:22;;;;;;;;;;;25.60;40.90;;;;;;5067705;28;674;-44
2022/04/28 12:53:50;;;;;;;;;;;25.60;41.00;;;;;;5064519;28;881;-44
2022/04/28 12:56:18;;;;;;;;;;;25.60;40.90;;;;;;5064841;28;940;-44
2022/04/28 12:58:45;;;;;;;;;;;25.60;40.90;;;;;;5064159;28;1934;-44
2022/04/28 13:01:14;;;;;;;;;;;25.70;40.80;;;;;;5061894;28;1827;-44
2022/04/28 13:03:41;;;;;;;;;;;25.60;40.80;;;;;;5059298;28;897;-44
2022/04/28 13:06:09;;;;;;;;;;;25.70;40.90;;;;;;5062365;28;853;-44
2022/04/28 13:08:36;;;;;;;;;;;25.60;41.00;;;;;;5061843;28;983;-44
2022/04/28 13:11:03;;;;;;;;;;;25.60;40.90;;;;;;5063925;28;975;-44
2022/04/28 13:13:30;;;;;;;;;;;25.70;40.80;;;;;;5063440;28;1035;-44
2022/04/28 13:15:57;;;;;;;;;;;25.70;40.70;;;;;;5063054;28;857;-44
2022/04/28 13:18:24;;;;;;;;;;;25.70;40.70;;;;;;5066568;28;1975;-44
2022/04/28 13:20:51;;;;;;;;;;;25.80;40.70;;;;;;5065613;28;936;-46
2022/04/28 13:23:19;;;;;;;;;;;25.80;40.70;;;;;;5066411;28;971;-45
2022/04/28 13:25:46;;;;;;;;;;;25.80;40.70;;;;;;5062406;28;940;-44
2022/04/28 13:28:12;;;;;;;;;;;25.70;40.70;;;;;;5065132;28;889;-44
2022/04/28 13:30:40;;;;;;;;;;;25.70;40.80;;;;;;5065954;28;944;-44
2022/04/28 13:33:08;;;;;;;;;;;25.70;40.80;;;;;;5064871;28;949;-44
2022/04/28 13:35:36;;;;;;;;;;;25.70;40.80;;;;;;5065158;28;908;-44
2022/04/28 13:38:05;;;;;;;;;;;25.70;40.90;;;;;;5065456;28;1898;-44
2022/04/28 13:40:34;;;;;;;;;;;25.70;41.00;;;;;;5065306;28;1442;-44
2022/04/28 13:43:01;;;;;;;;;;;25.70;40.90;;;;;;5063107;28;997;-44
2022/04/28 13:45:28;;;;;;;;;;;25.70;40.80;;;;;;5066138;28;972;-44
2022/04/28 13:47:54;;;;;;;;;;;25.80;41.00;;;;;;5064622;28;1030;-44
2022/04/28 13:50:21;;;;;;;;;;;25.80;40.90;;;;;;5065296;28;929;-44
2022/04/28 13:52:49;;;;;;;;;;;25.80;40.90;;;;;;5067491;28;873;-44
2022/04/28 13:55:16;;;;;;;;;;;25.80;40.90;;;;;;5065806;28;714;-44
2022/04/28 13:57:44;;;;;;;;;;;25.80;40.90;;;;;;5064554;28;1910;-44
2022/04/28 14:00:14;;;;;;;;;;;25.80;40.90;;;;;;5066308;28;889;-44
2022/04/28 14:02:41;;;;;;;;;;;25.90;40.90;;;;;;5063906;28;1871;-44
2022/04/28 14:05:09;;;;;;;;;;;25.90;40.80;;;;;;5064773;28;1000;-44
2022/04/28 14:07:36;;;;;;;;;;;25.90;40.70;;;;;;5068831;28;1042;-44
2022/04/28 14:10:04;;;;;;;;;;;25.90;40.70;;;;;;5067870;28;955;-42
2022/04/28 14:12:31;;;;;;;;;;;25.90;40.70;;;;;;5065002;28;981;-44
2022/04/28 14:14:59;;;;;;;;;;;26.00;40.80;;;;;;5063674;28;1031;-43
2022/04/28 14:17:26;;;;;;;;;;;26.00;40.80;;;;;;5063871;28;1902;-43
2022/04/28 14:19:53;;;;;;;;;;;26.00;40.70;;;;;;5063198;28;1981;-43
2022/04/28 14:22:20;;;;;;;;;;;26.10;40.70;;;;;;5063102;28;991;-44
2022/04/28 14:24:48;;;;;;;;;;;26.00;40.60;;;;;;5064075;28;924;-44
2022/04/28 14:27:14;;;;;;;;;;;26.10;40.70;;;;;;5063511;28;992;-47
2022/04/28 14:29:41;;;;;;;;;;;26.10;40.60;;;;;;5061864;28;886;-44
2022/04/28 14:32:10;;;;;;;;;;;26.10;40.70;;;;;;5062759;28;1009;-44
2022/04/28 14:34:37;;;;;;;;;;;26.10;40.70;;;;;;5063386;28;1026;-44
2022/04/28 14:37:06;;;;;;;;;;;26.10;40.60;;;;;;5062474;28;936;-44
2022/04/28 14:39:32;;;;;;;;;;;26.10;40.70;;;;;;5062558;28;1979;-44
2022/04/28 14:41:59;;;;;;;;;;;26.20;40.70;;;;;;5064653;28;1016;-43
2022/04/28 14:44:26;;;;;;;;;;;26.20;40.70;;;;;;5065429;28;945;-44
2022/04/28 14:46:53;;;;;;;;;;;26.20;40.50;;;;;;5063949;28;936;-44
2022/04/28 14:52:21;;;;;;;;;;;26.30;40.60;;;;;;5063624;28;861;-44
2022/04/28 14:54:48;;;;;;;;;;;26.30;40.50;;;;;;5060382;28;865;-44
2022/04/28 14:57:14;;;;;;;;;;;26.30;41.80;;;;;;5059673;28;1051;-44
2022/04/28 14:59:41;;;;;;;;;;;26.30;40.60;;;;;;5062468;28;1910;-43
2022/04/28 15:02:08;;;;;;;;;;;26.30;40.60;;;;;;5060892;28;1000;-44
2022/04/28 15:04:36;;;;;;;;;;;26.30;40.60;;;;;;5063676;28;976;-44
2022/04/28 15:07:03;;;;;;;;;;;26.40;40.70;;;;;;5061980;28;969;-45
2022/04/28 15:09:30;;;;;;;;;;;26.40;40.60;;;;;;5064416;28;916;-44
2022/04/28 15:11:57;;;;;;;;;;;26.40;40.70;;;;;;5063829;28;888;-44
2022/04/28 15:14:24;;;;;;;;;;;26.40;40.60;;;;;;5064834;28;881;-43
2022/04/28 15:16:51;;;;;;;;;;;26.40;40.50;;;;;;5066223;28;941;-43
2022/04/28 15:19:18;;;;;;;;;;;26.40;40.60;;;;;;5065299;28;1914;-43
2022/04/28 15:21:46;;;;;;;;;;;26.50;40.70;;;;;;5065453;28;1012;-44